Skip Navigation Links
NOAA logo - Click to go to the NOAA homepage
NOAA's National Weather Service
Alaska Aviation Weather Unit
  NWS logo - Click to go to the NWS homepage
Left Navbar Graphic     21 AKDT = 05 GMT

   
NOAA is celebrating 200 years of science, service, and stewardship. Visit the NOAA 200th celebration Web site to learn more.
USA.gov is the U.S. Government's official Web portal to all Federal, state and local government Web resources and services.
Facebook
NWS on Facebook

Important Change Regarding the AAWU Web Presence

 

Over the last several months, the AAWU has been working to navigate its webpages to a nationally supported server. Security, as well as other needs, have necessitated the change.  In the process, we have made an effort to enhance the functionality of our website, as well as some of our products. As of June 27, 2017, aawu.arh.noaa.gov will be discontinued. The new AAWU web address is weather.gov/aawu. It is now live and will run in-parallel with the old site until it is discontinued. Please send any feedback or questions regarding the new webpages to nws.ar.aawu.webauthors@noaa.gov.  Thank you for your patience during this time of transition.
AAWU Home :: Display TAF Add Bookmark
TAF CYYE 250038Z 2501/2513 12006KT P6SM FEW070 BKN220
     BECMG 2503/2505 VRB03KT
    FM250600 VRB03KT P6SM SCT080 BKN150
    FM251100 VRB03KT P6SM FEW100
    RMK NXT FCST BY 250700Z=

METAR CYYE 242300Z 14006KT 090V200 20SM FEW065 BKN220 26/09 A3012 RMK CU2CI3 SLP209 DENSITY ALT 2600FT= METAR CYYE 250000Z 12006KT 070V160 20SM FEW065 BKN220 26/08 A3010 RMK CU2CI3 SLP200 DENSITY ALT 2600FT= METAR CYYE 250100Z 11011KT 20SM FEW065 SCT220 26/06 A3007 RMK CU2CI2 SLP190 DENSITY ALT 2700FT= METAR CYYE 250200Z 10010KT 15SM FEW065 SCT220 26/06 A3005 RMK CU1CI2 SLP182 DENSITY ALT 2700FT= METAR CYYE 250300Z 11009G15KT 15SM FEW070 BKN220 25/07 A3004 RMK AC1CI4 SLP178 DENSITY ALT 2600FT= METAR CYYE 250400Z 10008KT 15SM FEW070 BKN240 23/06 A3002 RMK AC1CI5 WND ESTD SLP173 DENSITY ALT 2400FT= METAR CYYE 250500Z 11008KT 15SM FEW070 BKN200 22/06 A3001 RMK AC1CI6 SLP169 DENSITY ALT 2300FT=
 Alaska TAF Map

NOAA's National Weather Service
Alaska Aviation Weather Unit
6930 Sand Lake Road
Anchorage, AK 99502-1845
Disclaimer
Credits
Glossary
Privacy Policy
About Us
Career Opportunities
Contact AAWU Internet Services Site last modified: April, 17th 2012